| time (UTC) | temp F | wind direction | speed knots | gust knots | rain 1hr in | rain 24hr in | rain mn in | humidity % | barometer mb |
| 20260507160006 | 60 | 101 | 3.5 | 13.0 | 0.00 | 0.00 | 0.00 | 54 | 1015.0 |
| 20260507154533 | 59 | 103 | 4.3 | 13.9 | 0.00 | 0.00 | 0.00 | 54 | 1015.2 |
| 20260507153107 | 59 | 77 | 4.3 | 16.5 | 0.00 | 0.00 | 0.00 | 56 | 1015.4 |
| 20260507151532 | 58 | 124 | 6.1 | 22.6 | 0.00 | 0.00 | 0.00 | 57 | 1015.6 |
| 20260507150108 | 57 | 100 | 0.0 | 11.3 | 0.00 | 0.00 | 0.00 | 62 | 1015.6 |
| 20260507144520 | 56 | 111 | 0.0 | 15.6 | 0.00 | 0.00 | 0.00 | 62 | 1015.9 |
| 20260507143100 | 55 | 101 | 0.0 | 7.8 | 0.00 | 0.00 | 0.00 | 65 | 1016.1 |
| 20260507141539 | 54 | 128 | 0.0 | 10.4 | 0.00 | 0.00 | 0.00 | 67 | 1016.2 |
| 20260507140035 | 53 | 75 | 0.9 | 10.4 | 0.00 | 0.00 | 0.00 | 69 | 1016.4 |
| 20260507134512 | 52 | 117 | 0.0 | 7.8 | 0.00 | 0.00 | 0.00 | 72 | 1016.5 |
| 20260507133046 | 51 | 89 | 0.9 | 7.0 | 0.00 | 0.00 | 0.00 | 74 | 1016.3 |
| 20260507131510 | 50 | 100 | 0.0 | 1.7 | 0.00 | 0.00 | 0.00 | 76 | 1016.5 |
| 20260507130050 | 48 | 110 | 0.0 | 1.7 | 0.00 | 0.00 | 0.00 | 78 | 1016.5 |
| 20260507124509 | 47 | 112 | 0.0 | 0.9 | 0.00 | 0.00 | 0.00 | 81 | 1016.3 |
| 20260507123048 | 46 | 110 | 0.0 | 0.0 | 0.00 | 0.00 | 0.00 | 82 | 1016.4 |
| 20260507121517 | 46 | 102 | 0.0 | 0.0 | 0.00 | 0.00 | 0.00 | 84 | 1016.4 |
| 20260507120041 | 45 | 103 | 0.0 | 0.0 | 0.00 | 0.00 | 0.00 | 85 | 1016.5 |
| 20260507114524 | 44 | 105 | 0.0 | 0.0 | 0.00 | 0.00 | 0.00 | 86 | 1016.6 |
| 20260507113053 | 44 | 113 | 0.0 | 0.0 | 0.00 | 0.00 | 0.00 | 86 | 1016.7 |
| 20260507111523 | 44 | 105 | 0.0 | 0.0 | 0.00 | 0.00 | 0.00 | 86 | 1016.6 |
| 20260507104529 | 44 | 103 | 0.0 | 0.0 | 0.00 | 0.00 | 0.00 | 84 | 1016.7 |
| 20260507103115 | 45 | 110 | 0.0 | 0.0 | 0.00 | 0.00 | 0.00 | 84 | 1016.7 |
| 20260507101549 | 45 | 106 | 0.0 | 0.0 | 0.00 | 0.00 | 0.00 | 83 | 1016.8 |
| 20260507100032 | 46 | 112 | 0.0 | 0.0 | 0.00 | 0.00 | 0.00 | 82 | 1016.8 |
| 20260507094602 | 46 | 92 | 0.0 | 0.0 | 0.00 | 0.00 | 0.00 | 80 | 1016.8 |
| 20260507094500 | 46 | 91 | 0.0 | 0.0 | 0.00 | 0.00 | 0.00 | 80 | 1016.8 |
| 20260507093029 | 46 | 99 | 0.0 | 0.0 | 0.00 | 0.00 | 0.00 | 80 | 1016.8 |
| 20260507091559 | 47 | 110 | 0.0 | 0.0 | 0.00 | 0.00 | 0.00 | 79 | 1016.8 |
| 20260507091509 | 47 | 115 | 0.0 | 0.0 | 0.00 | 0.00 | 0.00 | 79 | 1016.9 |
| 20260507090055 | 47 | 107 | 0.0 | 0.0 | 0.00 | 0.00 | 0.00 | 79 | 1017.0 |
| 20260507084540 | 47 | 109 | 0.0 | 0.0 | 0.00 | 0.00 | 0.00 | 78 | 1017.2 |
| 20260507083015 | 47 | 109 | 0.0 | 0.0 | 0.00 | 0.00 | 0.00 | 78 | 1017.3 |
| 20260507081539 | 46 | 113 | 0.0 | 0.0 | 0.00 | 0.00 | 0.00 | 78 | 1017.3 |
| 20260507080023 | 47 | 109 | 0.0 | 0.0 | 0.00 | 0.00 | 0.00 | 77 | 1017.4 |
| 20260507074547 | 47 | 112 | 0.0 | 0.0 | 0.00 | 0.00 | 0.00 | 76 | 1017.5 |
| 20260507073032 | 47 | 105 | 0.0 | 0.0 | 0.00 | 0.00 | 0.00 | 76 | 1017.6 |
| 20260507071505 | 47 | 110 | 0.0 | 0.0 | 0.00 | 0.00 | 0.00 | 74 | 1017.6 |
| 20260507070046 | 48 | 108 | 0.0 | 0.0 | 0.00 | 0.00 | 0.00 | 74 | 1017.7 |
| 20260507064505 | 48 | 110 | 0.0 | 0.0 | 0.00 | 0.00 | 0.00 | 73 | 1017.9 |
| 20260507063033 | 48 | 113 | 0.0 | 0.0 | 0.00 | 0.00 | 0.00 | 72 | 1018.1 |
| 20260507061502 | 49 | 109 | 0.0 | 0.0 | 0.00 | 0.00 | 0.00 | 70 | 1018.2 |
| 20260507060033 | 50 | 102 | 0.0 | 0.0 | 0.00 | 0.00 | 0.00 | 68 | 1018.2 |
| 20260507054614 | 50 | 115 | 0.0 | 0.0 | 0.00 | 0.00 | 0.00 | 66 | 1018.4 |
| 20260507053029 | 51 | 110 | 0.0 | 0.0 | 0.00 | 0.00 | 0.00 | 64 | 1018.5 |
| 20260507051501 | 52 | 102 | 0.0 | 0.0 | 0.00 | 0.00 | 0.00 | 63 | 1018.4 |
| 20260507050059 | 52 | 104 | 0.0 | 0.0 | 0.00 | 0.00 | 0.00 | 62 | 1018.4 |
| 20260507044523 | 52 | 102 | 0.0 | 0.0 | 0.00 | 0.00 | 0.00 | 62 | 1018.4 |
| 20260507043100 | 52 | 103 | 0.0 | 0.0 | 0.00 | 0.00 | 0.00 | 61 | 1018.4 |
| 20260507041529 | 52 | 100 | 0.0 | 0.0 | 0.00 | 0.00 | 0.00 | 62 | 1018.4 |
| 20260507040059 | 52 | 113 | 0.0 | 0.0 | 0.00 | 0.00 | 0.00 | 62 | 1018.4 |
| 20260507034535 | 52 | 110 | 0.0 | 0.0 | 0.00 | 0.00 | 0.00 | 62 | 1018.4 |
| 20260507033023 | 52 | 109 | 0.0 | 0.0 | 0.00 | 0.00 | 0.00 | 61 | 1018.4 |
| 20260507031550 | 52 | 110 | 0.0 | 0.0 | 0.00 | 0.00 | 0.00 | 60 | 1018.4 |
| 20260507030033 | 52 | 116 | 0.0 | 0.0 | 0.00 | 0.00 | 0.00 | 58 | 1018.5 |
| 20260507024516 | 52 | 103 | 0.0 | 0.0 | 0.00 | 0.00 | 0.00 | 55 | 1018.4 |
| 20260507023038 | 52 | 103 | 0.0 | 0.0 | 0.00 | 0.00 | 0.00 | 54 | 1018.3 |
| 20260507021518 | 52 | 103 | 0.0 | 0.0 | 0.00 | 0.00 | 0.00 | 52 | 1018.0 |
| 20260507020108 | 52 | 89 | 0.0 | 0.0 | 0.00 | 0.00 | 0.00 | 54 | 1017.8 |
| 20260507014529 | 53 | 89 | 0.0 | 0.0 | 0.00 | 0.00 | 0.00 | 52 | 1017.7 |
| 20260507013053 | 54 | 89 | 0.0 | 0.0 | 0.00 | 0.00 | 0.00 | 45 | 1017.5 |
| 20260507011559 | 56 | 89 | 0.0 | 0.0 | 0.00 | 0.00 | 0.00 | 42 | 1017.5 |
| 20260507010040 | 58 | 89 | 0.0 | 0.0 | 0.00 | 0.00 | 0.00 | 37 | 1017.4 |
| 20260507004552 | 61 | 89 | 0.0 | 0.0 | 0.00 | 0.00 | 0.00 | 33 | 1017.5 |
| 20260507004504 | 61 | 89 | 0.0 | 0.0 | 0.00 | 0.00 | 0.00 | 32 | 1017.5 |
| 20260507003034 | 63 | 72 | 0.0 | 0.0 | 0.00 | 0.00 | 0.00 | 30 | 1017.5 |
| 20260507001555 | 63 | 98 | 0.0 | 0.0 | 0.00 | 0.00 | 0.00 | 30 | 1017.5 |
| 20260507000025 | 63 | 105 | 0.0 | 0.0 | 0.00 | 0.00 | 0.00 | 31 | 1017.6 |
| 20260506234604 | 65 | 95 | 0.0 | 0.0 | 0.00 | 0.00 | 0.00 | 31 | 1017.6 |
| 20260506233022 | 63 | 112 | 0.0 | 0.0 | 0.00 | 0.00 | 0.00 | 32 | 1017.6 |
| 20260506231558 | 62 | 83 | 0.0 | 0.0 | 0.00 | 0.00 | 0.00 | 32 | 1017.6 |
| 20260506224538 | 62 | 101 | 0.0 | 0.0 | 0.00 | 0.00 | 0.00 | 32 | 1017.8 |
| 20260506223038 | 63 | 108 | 0.0 | 0.0 | 0.00 | 0.00 | 0.00 | 30 | 1017.7 |
| 20260506221516 | 64 | 108 | 0.0 | 0.0 | 0.00 | 0.00 | 0.00 | 29 | 1017.8 |
| 20260506220048 | 65 | 92 | 0.0 | 0.0 | 0.00 | 0.00 | 0.00 | 34 | 1018.0 |
| 20260506214514 | 63 | 103 | 0.0 | 0.0 | 0.00 | 0.00 | 0.00 | 35 | 1018.0 |
| 20260506213052 | 62 | 89 | 0.0 | 6.1 | 0.00 | 0.00 | 0.00 | 31 | 1018.3 |
| 20260506211542 | 62 | 114 | 0.0 | 0.0 | 0.00 | 0.00 | 0.00 | 33 | 1018.5 |
| 20260506210031 | 61 | 90 | 0.0 | 0.0 | 0.00 | 0.00 | 0.00 | 31 | 1018.8 |
| 20260506204546 | 62 | 88 | 0.0 | 0.0 | 0.00 | 0.00 | 0.00 | 34 | 1019.0 |
| 20260506203036 | 62 | 104 | 0.0 | 0.0 | 0.00 | 0.00 | 0.00 | 35 | 1019.3 |
| 20260506201516 | 63 | 124 | 0.0 | 0.0 | 0.00 | 0.00 | 0.00 | 33 | 1019.6 |
| 20260506200052 | 61 | 96 | 0.0 | 0.0 | 0.00 | 0.00 | 0.00 | 36 | 1019.7 |
| 20260506194525 | 62 | 115 | 0.0 | 0.0 | 0.00 | 0.00 | 0.00 | 32 | 1019.9 |
| 20260506193059 | 63 | 122 | 0.0 | 0.0 | 0.00 | 0.00 | 0.00 | 31 | 1019.8 |
| 20260506191534 | 61 | 91 | 0.0 | 0.9 | 0.00 | 0.00 | 0.00 | 33 | 1019.8 |
| 20260506190006 | 61 | 84 | 0.0 | 0.0 | 0.00 | 0.00 | 0.00 | 33 | 1019.8 |
| 20260506184603 | 62 | 104 | 0.0 | 0.0 | 0.00 | 0.00 | 0.00 | 31 | 1019.8 |
| 20260506183042 | 60 | 58 | 0.0 | 0.0 | 0.00 | 0.00 | 0.00 | 34 | 1020.0 |
| 20260506181523 | 59 | 113 | 0.0 | 0.9 | 0.00 | 0.00 | 0.00 | 35 | 1020.2 |
| 20260506180042 | 57 | 143 | 0.0 | 0.0 | 0.00 | 0.00 | 0.00 | 40 | 1020.2 |
| 20260506174533 | 59 | 131 | 0.0 | 2.6 | 0.00 | 0.00 | 0.00 | 42 | 1020.4 |
| 20260506173119 | 58 | 124 | 0.0 | 0.0 | 0.00 | 0.00 | 0.00 | 40 | 1020.6 |
| 20260506171533 | 57 | 91 | 0.0 | 0.0 | 0.00 | 0.00 | 0.00 | 39 | 1020.8 |
| 20260506170007 | 58 | 310 | 0.0 | 0.0 | 0.00 | 0.00 | 0.00 | 43 | 1020.9 |
| 20260506164526 | 55 | 117 | 0.0 | 0.0 | 0.00 | 0.00 | 0.00 | 45 | 1020.9 |
| 20260506163058 | 54 | 110 | 0.0 | 0.0 | 0.00 | 0.00 | 0.00 | 44 | 1020.8 |
| 20260506161539 | 53 | 85 | 0.0 | 0.0 | 0.00 | 0.00 | 0.00 | 49 | 1020.8 |